createdAt,value
2023-02-06T00:00:06.682Z,101298.00
2023-02-06T00:02:39.398Z,101299.28
2023-02-06T00:05:12.518Z,101300.63
2023-02-06T00:07:45.370Z,101300.22
2023-02-06T00:10:19.675Z,101301.09
2023-02-06T00:12:53.401Z,101297.13
2023-02-06T00:15:26.583Z,101295.00
2023-02-06T00:17:59.339Z,101291.03
2023-02-06T00:20:32.204Z,101292.00
2023-02-06T00:23:04.969Z,101293.06
2023-02-06T00:25:39.219Z,101296.16
2023-02-06T00:28:12.405Z,101295.69
2023-02-06T00:30:48.163Z,101302.97
2023-02-06T00:33:21.306Z,101302.34
2023-02-06T00:35:54.099Z,101302.78
2023-02-06T00:38:26.949Z,101302.88
2023-02-06T00:41:01.162Z,101296.13
2023-02-06T00:43:36.848Z,101293.38
2023-02-06T00:46:10.156Z,101295.34
2023-02-06T00:48:42.949Z,101296.31
2023-02-06T00:51:15.745Z,101297.75
2023-02-06T00:53:50.977Z,101302.63
2023-02-06T00:56:25.359Z,101305.84
2023-02-06T00:58:58.244Z,101300.66
2023-02-06T01:01:31.092Z,101308.16
2023-02-06T01:04:03.962Z,101298.94
2023-02-06T01:06:36.691Z,101301.19
2023-02-06T01:09:09.445Z,101303.44
2023-02-06T01:11:43.595Z,101311.63
2023-02-06T01:14:16.646Z,101304.81
2023-02-06T01:16:49.514Z,101300.56
2023-02-06T01:19:23.028Z,101294.69
2023-02-06T01:21:55.898Z,101294.09
2023-02-06T01:24:28.758Z,101290.19
2023-02-06T01:27:03.473Z,101296.31
2023-02-06T01:29:36.408Z,101300.84
2023-02-06T01:32:09.161Z,101301.28
2023-02-06T01:34:41.973Z,101296.97
2023-02-06T01:37:15.189Z,101295.53
2023-02-06T01:39:47.927Z,101287.06
2023-02-06T01:42:22.092Z,101286.50
2023-02-06T01:45:33.552Z,101290.75
2023-02-06T01:48:11.121Z,101278.91
2023-02-06T01:50:46.991Z,101282.97
2023-02-06T01:53:21.623Z,101284.00
2023-02-06T01:55:57.516Z,101291.63
2023-02-06T01:58:36.594Z,101285.69
2023-02-06T02:01:10.480Z,101291.44
2023-02-06T02:03:45.428Z,101294.44
2023-02-06T02:06:21.819Z,101285.09
2023-02-06T02:08:58.319Z,101286.34
2023-02-06T02:11:34.965Z,101285.78
2023-02-06T02:14:14.118Z,101274.41
2023-02-06T02:16:58.248Z,101275.56
2023-02-06T02:20:13.316Z,101271.03
2023-02-06T02:23:06.132Z,101273.25
2023-02-06T02:26:17.082Z,101271.88
2023-02-06T02:29:28.431Z,101270.91
2023-02-06T02:32:37.791Z,101273.97
2023-02-06T02:35:24.430Z,101273.25
2023-02-06T02:38:07.892Z,101280.28
2023-02-06T02:40:48.568Z,101276.72
2023-02-06T02:43:33.852Z,101270.41
2023-02-06T02:46:14.396Z,101276.13
2023-02-06T02:48:50.214Z,101273.19
2023-02-06T02:51:25.477Z,101268.81
2023-02-06T02:53:58.827Z,101263.47
2023-02-06T02:56:33.791Z,101263.13
2023-02-06T02:59:11.743Z,101269.44
2023-02-06T03:01:49.736Z,101277.56
2023-02-06T03:04:26.463Z,101271.88
2023-02-06T03:07:14.607Z,101281.94
2023-02-06T03:09:58.662Z,101275.63
2023-02-06T03:12:39.717Z,101275.13
2023-02-06T03:15:24.661Z,101280.28
2023-02-06T03:18:02.300Z,101286.47
2023-02-06T03:20:37.993Z,101284.69
2023-02-06T03:23:14.087Z,101278.19
2023-02-06T03:25:51.897Z,101281.72
2023-02-06T03:28:28.846Z,101280.00
2023-02-06T03:31:06.868Z,101271.03
2023-02-06T03:33:46.588Z,101278.03
2023-02-06T03:36:20.271Z,101272.50
2023-02-06T03:38:54.856Z,101284.38
2023-02-06T03:41:35.661Z,101293.94
2023-02-06T03:44:13.290Z,101292.78
2023-02-06T03:46:48.898Z,101300.06
2023-02-06T03:49:25.710Z,101287.56
2023-02-06T03:52:03.067Z,101280.41
2023-02-06T03:54:40.402Z,101290.59
2023-02-06T03:57:19.328Z,101276.81
2023-02-06T03:59:52.622Z,101281.63
2023-02-06T04:02:27.206Z,101284.81
2023-02-06T04:05:00.047Z,101282.84
2023-02-06T04:07:36.183Z,101284.47
2023-02-06T04:10:11.154Z,101287.38
2023-02-06T04:12:43.955Z,101284.75
2023-02-06T04:15:16.901Z,101288.50
2023-02-06T04:18:00.029Z,101304.53
2023-02-06T04:20:34.322Z,101295.38
2023-02-06T04:23:07.252Z,101299.66
2023-02-06T04:25:41.334Z,101290.75
2023-02-06T04:28:14.578Z,101291.47
2023-02-06T04:30:49.013Z,101291.47
2023-02-06T04:33:21.951Z,101292.59
2023-02-06T04:35:54.818Z,101306.69
2023-02-06T04:38:27.712Z,101308.97
2023-02-06T04:41:04.875Z,101302.84
2023-02-06T04:43:37.689Z,101301.00
2023-02-06T04:46:10.473Z,101291.00
2023-02-06T04:48:43.471Z,101288.91
2023-02-06T04:51:16.541Z,101292.59
2023-02-06T04:53:49.346Z,101302.00
2023-02-06T04:56:25.500Z,101295.34
2023-02-06T04:58:58.830Z,101296.00
2023-02-06T05:01:31.958Z,101300.50
2023-02-06T05:04:04.797Z,101298.22
2023-02-06T05:06:37.633Z,101300.88
2023-02-06T05:09:10.825Z,101292.88
2023-02-06T05:11:44.972Z,101293.19
2023-02-06T05:14:17.840Z,101295.88
2023-02-06T05:16:50.603Z,101301.22
2023-02-06T05:19:23.457Z,101290.50
2023-02-06T05:21:56.245Z,101287.41
2023-02-06T05:24:29.208Z,101286.78
2023-02-06T05:27:03.386Z,101282.66
2023-02-06T05:29:36.204Z,101273.97
2023-02-06T05:32:08.991Z,101278.81
2023-02-06T05:34:41.785Z,101271.03
2023-02-06T05:37:14.561Z,101269.38
2023-02-06T05:39:47.335Z,101274.94
2023-02-06T05:42:21.639Z,101279.63
2023-02-06T05:44:54.437Z,101275.41
2023-02-06T05:47:27.526Z,101273.28
2023-02-06T05:50:00.286Z,101283.63
2023-02-06T05:52:33.202Z,101279.78
2023-02-06T05:55:06.601Z,101293.91
2023-02-06T05:57:40.768Z,101296.56
2023-02-06T06:00:14.840Z,101299.41
2023-02-06T06:02:47.702Z,101292.56
2023-02-06T06:05:21.347Z,101289.81
2023-02-06T06:07:54.121Z,101288.25
2023-02-06T06:10:26.916Z,101289.06
2023-02-06T06:13:01.060Z,101289.72
2023-02-06T06:15:34.230Z,101289.75
2023-02-06T06:18:07.352Z,101284.22
2023-02-06T06:20:40.173Z,101266.00
2023-02-06T06:23:12.968Z,101280.34
2023-02-06T06:25:47.051Z,101286.84
2023-02-06T06:28:21.291Z,101278.97
2023-02-06T06:31:01.650Z,101283.66
2023-02-06T06:33:34.415Z,101299.38
2023-02-06T06:36:08.638Z,101294.81
2023-02-06T06:38:41.474Z,101307.00
2023-02-06T06:41:14.234Z,101295.50
2023-02-06T06:43:51.221Z,101305.41
2023-02-06T06:46:24.450Z,101303.28
2023-02-06T06:48:57.197Z,101298.59
2023-02-06T06:51:30.261Z,101308.78
2023-02-06T06:54:03.303Z,101308.31
2023-02-06T06:56:36.219Z,101298.13
2023-02-06T06:59:10.500Z,101297.31
2023-02-06T07:01:43.358Z,101304.78
2023-02-06T07:04:16.241Z,101304.72
2023-02-06T07:06:49.087Z,101299.94
2023-02-06T07:09:22.171Z,101301.09
2023-02-06T07:11:55.101Z,101298.59
2023-02-06T07:14:29.296Z,101300.72
2023-02-06T07:17:02.148Z,101297.81
2023-02-06T07:19:35.043Z,101295.22
2023-02-06T07:22:07.781Z,101293.63
2023-02-06T07:24:40.506Z,101303.19
2023-02-06T07:27:13.618Z,101305.59
2023-02-06T07:29:47.753Z,101309.59
2023-02-06T07:32:20.542Z,101310.56
2023-02-06T07:34:53.273Z,101300.19
2023-02-06T07:37:26.162Z,101302.69
2023-02-06T07:39:58.942Z,101311.09
2023-02-06T07:42:33.448Z,101314.44
2023-02-06T07:45:15.718Z,101306.00
2023-02-06T07:47:48.459Z,101305.50
2023-02-06T07:50:21.499Z,101305.00
2023-02-06T07:52:54.186Z,101289.44
2023-02-06T07:55:26.975Z,101276.41
2023-02-06T07:57:59.721Z,101271.41
2023-02-06T08:00:33.840Z,101274.91
2023-02-06T08:03:07.222Z,101274.75
2023-02-06T08:05:40.707Z,101288.25
2023-02-06T08:08:14.058Z,101287.28
2023-02-06T08:10:47.204Z,101298.63
2023-02-06T08:13:20.124Z,101293.63
2023-02-06T08:15:54.888Z,101299.94
2023-02-06T08:18:29.593Z,101300.19
2023-02-06T08:21:03.390Z,101283.69
2023-02-06T08:23:36.540Z,101290.69
2023-02-06T08:26:12.589Z,101290.94
2023-02-06T08:28:50.112Z,101291.97
2023-02-06T08:31:27.491Z,101283.69
2023-02-06T08:34:00.781Z,101278.84
2023-02-06T08:36:33.804Z,101291.19
2023-02-06T08:39:07.266Z,101294.78
2023-02-06T08:41:41.783Z,101284.59
2023-02-06T08:44:16.126Z,101278.75
2023-02-06T08:46:56.226Z,101279.03
2023-02-06T08:49:34.363Z,101278.03
2023-02-06T08:52:07.145Z,101278.50
2023-02-06T08:54:39.923Z,101271.78
2023-02-06T08:57:13.585Z,101268.59
2023-02-06T08:59:46.380Z,101268.81
2023-02-06T09:02:20.560Z,101255.22
2023-02-06T09:04:53.345Z,101258.97
2023-02-06T09:07:26.247Z,101254.72
2023-02-06T09:09:59.031Z,101254.84
2023-02-06T09:12:31.771Z,101263.66
2023-02-06T09:15:04.808Z,101261.34
2023-02-06T09:17:38.826Z,101268.03
2023-02-06T09:20:11.892Z,101254.09
2023-02-06T09:22:45.472Z,101260.59
2023-02-06T09:25:18.364Z,101255.38
2023-02-06T09:27:51.148Z,101244.19
2023-02-06T09:30:24.140Z,101237.19
2023-02-06T09:32:58.236Z,101245.28
2023-02-06T09:35:30.973Z,101238.97
2023-02-06T09:38:03.714Z,101234.63
2023-02-06T09:40:37.548Z,101238.81
2023-02-06T09:43:13.928Z,101233.16
2023-02-06T09:45:47.278Z,101220.63
2023-02-06T09:48:26.089Z,101224.97
2023-02-06T09:51:08.157Z,101218.81
2023-02-06T09:53:53.464Z,101222.91
2023-02-06T09:56:33.812Z,101220.84
2023-02-06T09:59:12.882Z,101227.00
2023-02-06T10:01:52.809Z,101225.50
2023-02-06T10:04:40.978Z,101230.47
2023-02-06T10:07:47.420Z,101224.50
2023-02-06T10:10:27.377Z,101223.50
2023-02-06T10:13:04.624Z,101220.13
2023-02-06T10:15:42.836Z,101215.47
2023-02-06T10:18:18.997Z,101218.66
2023-02-06T10:20:58.499Z,101212.84
2023-02-06T10:23:40.509Z,101208.28
2023-02-06T10:26:17.388Z,101206.03
2023-02-06T10:28:53.937Z,101201.34
2023-02-06T10:31:40.147Z,101197.78
2023-02-06T10:34:32.066Z,101189.50
2023-02-06T10:37:24.633Z,101193.72
2023-02-06T10:40:21.687Z,101193.56
2023-02-06T10:42:59.168Z,101193.25
2023-02-06T10:45:41.768Z,101198.09
2023-02-06T10:48:25.066Z,101190.97
2023-02-06T10:51:04.978Z,101179.75
2023-02-06T10:53:46.722Z,101190.16
2023-02-06T10:56:22.833Z,101177.19
2023-02-06T10:58:59.095Z,101178.31
2023-02-06T11:01:35.589Z,101166.97
2023-02-06T11:04:16.809Z,101170.22
2023-02-06T11:06:49.767Z,101175.72
2023-02-06T11:09:24.497Z,101170.66
2023-02-06T11:11:59.238Z,101174.91
2023-02-06T11:14:36.572Z,101179.34
2023-02-06T11:17:09.750Z,101167.56
2023-02-06T11:19:45.347Z,101172.72
2023-02-06T11:22:28.916Z,101172.75
2023-02-06T11:25:05.456Z,101175.84
2023-02-06T11:27:38.230Z,101174.69
2023-02-06T11:30:32.407Z,101169.84
2023-02-06T11:33:08.592Z,101157.00
2023-02-06T11:35:50.093Z,101149.78
2023-02-06T11:38:24.990Z,101146.47
2023-02-06T11:41:01.903Z,101138.97
2023-02-06T11:43:49.719Z,101132.59
2023-02-06T11:46:26.235Z,101132.66
2023-02-06T11:49:07.803Z,101128.88
2023-02-06T11:51:51.668Z,101120.97
2023-02-06T11:54:28.255Z,101117.09
2023-02-06T11:57:07.866Z,101115.41
2023-02-06T11:59:52.530Z,101123.34
2023-02-06T12:02:28.796Z,101118.78
2023-02-06T12:05:35.366Z,101106.78
2023-02-06T12:08:21.515Z,101123.97
2023-02-06T12:10:59.246Z,101122.81
2023-02-06T12:13:38.760Z,101108.84
2023-02-06T12:16:15.066Z,101093.81
2023-02-06T12:18:52.099Z,101100.22
2023-02-06T12:21:35.683Z,101097.47
2023-02-06T12:24:22.190Z,101097.34
2023-02-06T12:26:56.462Z,101087.13
2023-02-06T12:29:35.925Z,101085.41
2023-02-06T12:32:15.262Z,101078.84
2023-02-06T12:34:53.813Z,101083.50
2023-02-06T12:37:32.478Z,101068.00
2023-02-06T12:40:14.493Z,101066.31
2023-02-06T12:42:51.367Z,101067.88
2023-02-06T12:45:36.252Z,101065.13
2023-02-06T12:48:17.848Z,101068.78
2023-02-06T12:51:04.286Z,101068.69
2023-02-06T12:53:41.571Z,101071.38
2023-02-06T12:56:24.933Z,101073.69
2023-02-06T12:59:08.222Z,101085.44
2023-02-06T13:01:54.029Z,101088.16
2023-02-06T13:04:31.505Z,101085.34
2023-02-06T13:07:08.247Z,101081.81
2023-02-06T13:09:48.021Z,101080.53
2023-02-06T13:12:23.686Z,101081.22
2023-02-06T13:14:58.673Z,101078.25
2023-02-06T13:17:37.349Z,101075.91
2023-02-06T13:20:12.329Z,101077.66
2023-02-06T13:22:47.453Z,101069.09
2023-02-06T13:25:47.735Z,101064.38
2023-02-06T13:28:57.780Z,101081.03
2023-02-06T13:31:35.449Z,101090.22
2023-02-06T13:34:18.770Z,101077.56
2023-02-06T13:36:53.734Z,101073.94
2023-02-06T13:39:32.531Z,101089.13
2023-02-06T13:42:36.234Z,101079.88
2023-02-06T13:45:18.943Z,101080.53
2023-02-06T13:48:22.998Z,101081.56
2023-02-06T13:51:08.182Z,101077.31
2023-02-06T13:54:17.944Z,101075.50
2023-02-06T13:57:19.307Z,101082.50
2023-02-06T13:59:55.747Z,101081.41
2023-02-06T14:02:34.978Z,101082.41
2023-02-06T14:05:14.020Z,101073.94
2023-02-06T14:08:09.506Z,101077.31
2023-02-06T14:11:29.688Z,101077.50
2023-02-06T14:14:28.418Z,101082.50
2023-02-06T14:17:10.722Z,101073.41
2023-02-06T14:19:52.645Z,101071.78
2023-02-06T14:22:34.922Z,101074.78
2023-02-06T14:25:32.329Z,101075.09
2023-02-06T14:28:18.135Z,101089.38
2023-02-06T14:30:59.953Z,101085.19
2023-02-06T14:33:53.784Z,101086.69
2023-02-06T14:36:43.012Z,101077.31
2023-02-06T14:39:48.163Z,101083.03
2023-02-06T14:42:26.198Z,101067.09
2023-02-06T14:45:03.627Z,101065.97
2023-02-06T14:47:42.523Z,101075.63
2023-02-06T14:50:20.041Z,101073.34
2023-02-06T14:52:57.114Z,101077.25
2023-02-06T14:55:36.041Z,101072.38
2023-02-06T14:58:21.041Z,101069.44
2023-02-06T15:00:54.720Z,101069.59
2023-02-06T15:03:28.438Z,101057.09
2023-02-06T15:06:04.485Z,101057.03
2023-02-06T15:08:37.387Z,101066.50
2023-02-06T15:11:22.071Z,101059.91
2023-02-06T15:13:57.469Z,101058.53
2023-02-06T15:16:30.986Z,101055.56
2023-02-06T15:19:12.198Z,101048.16
2023-02-06T15:21:45.252Z,101047.91
2023-02-06T15:24:33.580Z,101047.31
2023-02-06T15:27:15.125Z,101047.38
2023-02-06T15:29:51.322Z,101048.97
2023-02-06T15:32:28.833Z,101049.63
2023-02-06T15:35:02.807Z,101035.72
2023-02-06T15:37:37.252Z,101037.75
2023-02-06T15:40:18.843Z,101048.34
2023-02-06T15:42:52.181Z,101042.16
2023-02-06T15:45:29.655Z,101049.41
2023-02-06T15:48:11.748Z,101057.44
2023-02-06T15:50:56.931Z,101060.38
2023-02-06T15:53:33.406Z,101055.31
2023-02-06T15:56:08.972Z,101049.75
2023-02-06T15:58:42.057Z,101057.50
2023-02-06T16:01:20.218Z,101061.63
2023-02-06T16:03:58.215Z,101063.97
2023-02-06T16:06:31.333Z,101057.97
2023-02-06T16:09:07.195Z,101061.88
2023-02-06T16:11:53.107Z,101069.72
2023-02-06T16:14:34.972Z,101066.66
2023-02-06T16:17:24.727Z,101069.59
2023-02-06T16:20:02.799Z,101077.88
2023-02-06T16:22:38.443Z,101077.69
2023-02-06T16:25:21.816Z,101078.81
2023-02-06T16:27:54.793Z,101074.00
2023-02-06T16:30:31.359Z,101078.59
2023-02-06T16:33:23.827Z,101076.47
2023-02-06T16:35:56.863Z,101078.94
2023-02-06T16:38:30.006Z,101070.97
2023-02-06T16:41:03.175Z,101070.97
2023-02-06T16:43:36.008Z,101073.75
2023-02-06T16:46:08.893Z,101078.78
2023-02-06T16:48:43.289Z,101079.25
2023-02-06T16:51:18.415Z,101087.22
2023-02-06T16:53:52.181Z,101097.41
2023-02-06T16:56:25.644Z,101102.63
2023-02-06T16:58:58.494Z,101112.84
2023-02-06T17:01:32.381Z,101113.47
2023-02-06T17:04:39.089Z,101109.25
2023-02-06T17:07:18.695Z,101117.22
2023-02-06T17:09:53.901Z,101117.19
2023-02-06T17:12:26.843Z,101119.97
2023-02-06T17:14:59.771Z,101127.25
2023-02-06T17:17:33.062Z,101124.63
2023-02-06T17:20:12.620Z,101121.06
2023-02-06T17:22:45.607Z,101124.50
2023-02-06T17:25:18.848Z,101123.84
2023-02-06T17:27:51.865Z,101119.28
2023-02-06T17:30:26.520Z,101117.34
2023-02-06T17:33:02.920Z,101128.38
2023-02-06T17:35:38.414Z,101110.72
2023-02-06T17:38:11.653Z,101113.94
2023-02-06T17:40:44.899Z,101113.78
2023-02-06T17:43:18.290Z,101127.56
2023-02-06T17:45:51.499Z,101128.50
2023-02-06T17:48:24.694Z,101125.09
2023-02-06T17:50:59.114Z,101121.09
2023-02-06T17:53:32.345Z,101127.41
2023-02-06T17:56:07.082Z,101136.13
2023-02-06T17:58:40.887Z,101138.59
2023-02-06T18:01:15.359Z,101129.53
2023-02-06T18:03:48.697Z,101129.69
2023-02-06T18:06:23.292Z,101130.78
2023-02-06T18:08:56.187Z,101137.63
2023-02-06T18:11:29.388Z,101133.72
2023-02-06T18:14:03.659Z,101143.59
2023-02-06T18:16:37.963Z,101150.09
2023-02-06T18:19:11.242Z,101143.72
2023-02-06T18:21:45.425Z,101139.22
2023-02-06T18:24:18.477Z,101144.75
2023-02-06T18:26:51.412Z,101150.09
2023-02-06T18:29:24.696Z,101147.81
2023-02-06T18:31:57.650Z,101140.19
2023-02-06T18:34:30.669Z,101141.94
2023-02-06T18:37:05.191Z,101143.41
2023-02-06T18:39:38.787Z,101150.06
2023-02-06T18:42:30.313Z,101146.28
2023-02-06T18:45:04.234Z,101148.88
2023-02-06T18:47:39.084Z,101146.94
2023-02-06T18:50:13.217Z,101164.28
2023-02-06T18:52:47.827Z,101166.09
2023-02-06T18:55:20.910Z,101166.06
2023-02-06T18:57:54.017Z,101171.28
2023-02-06T19:00:27.377Z,101161.69
2023-02-06T19:03:00.999Z,101159.31
2023-02-06T19:05:36.568Z,101157.16
2023-02-06T19:08:10.889Z,101162.91
2023-02-06T19:10:43.767Z,101159.31
2023-02-06T19:13:16.582Z,101158.78
2023-02-06T19:15:49.498Z,101159.16
2023-02-06T19:18:36.001Z,101156.72
2023-02-06T19:21:12.805Z,101156.16
2023-02-06T19:23:49.063Z,101158.59
2023-02-06T19:26:22.769Z,101165.63
2023-02-06T19:28:56.663Z,101160.94
2023-02-06T19:31:29.596Z,101148.66
2023-02-06T19:34:03.337Z,101145.88
2023-02-06T19:36:36.433Z,101158.66
2023-02-06T19:39:13.604Z,101149.91
2023-02-06T19:41:46.402Z,101156.41
2023-02-06T19:44:19.205Z,101163.53
2023-02-06T19:46:52.120Z,101164.91
2023-02-06T19:49:25.386Z,101158.47
2023-02-06T19:51:58.218Z,101157.69
2023-02-06T19:54:32.380Z,101158.47
2023-02-06T19:57:05.294Z,101157.94
2023-02-06T19:59:38.088Z,101153.59
2023-02-06T20:02:15.135Z,101159.25
2023-02-06T20:04:47.988Z,101155.41
2023-02-06T20:07:20.734Z,101157.16
2023-02-06T20:09:55.958Z,101171.06
2023-02-06T20:12:29.242Z,101168.69
2023-02-06T20:15:02.293Z,101169.38
2023-02-06T20:17:35.125Z,101168.09
2023-02-06T20:20:08.864Z,101164.19
2023-02-06T20:22:42.295Z,101178.59
2023-02-06T20:25:17.341Z,101172.94
2023-02-06T20:27:50.101Z,101171.28
2023-02-06T20:30:24.389Z,101169.31
2023-02-06T20:32:57.126Z,101156.56
2023-02-06T20:35:29.959Z,101160.59
2023-02-06T20:38:02.711Z,101168.88
2023-02-06T20:40:39.576Z,101169.84
2023-02-06T20:43:12.342Z,101171.00
2023-02-06T20:45:45.134Z,101167.41
2023-02-06T20:48:17.992Z,101164.19
2023-02-06T20:50:50.984Z,101163.06
2023-02-06T20:53:23.793Z,101165.19
2023-02-06T20:55:59.568Z,101166.94
2023-02-06T20:58:33.023Z,101164.72
2023-02-06T21:01:13.408Z,101169.88
2023-02-06T21:03:46.707Z,101169.22
2023-02-06T21:06:19.573Z,101176.88
2023-02-06T21:08:57.238Z,101195.19
2023-02-06T21:11:37.924Z,101188.34
2023-02-06T21:14:11.823Z,101179.28
2023-02-06T21:16:44.839Z,101190.78
2023-02-06T21:19:19.775Z,101205.88
2023-02-06T21:21:52.519Z,101200.31
2023-02-06T21:24:25.301Z,101201.94
2023-02-06T21:26:59.415Z,101193.22
2023-02-06T21:29:32.205Z,101200.00
2023-02-06T21:32:13.722Z,101187.69
2023-02-06T21:34:46.915Z,101190.09
2023-02-06T21:37:22.430Z,101190.47
2023-02-06T21:39:55.252Z,101191.84
2023-02-06T21:42:29.381Z,101193.34
2023-02-06T21:45:02.170Z,101187.78
2023-02-06T21:47:35.501Z,101185.03
2023-02-06T21:50:08.949Z,101178.72
2023-02-06T21:52:42.309Z,101181.66
2023-02-06T21:55:15.100Z,101173.75
2023-02-06T21:57:49.257Z,101172.13
2023-02-06T22:00:22.190Z,101172.47
2023-02-06T22:02:55.044Z,101176.03
2023-02-06T22:05:29.041Z,101194.63
2023-02-06T22:08:01.849Z,101207.47
2023-02-06T22:10:36.845Z,101212.31
2023-02-06T22:13:10.953Z,101200.63
2023-02-06T22:15:49.545Z,101201.41
2023-02-06T22:18:22.325Z,101211.66
2023-02-06T22:21:05.285Z,101205.19
2023-02-06T22:23:38.188Z,101206.34
2023-02-06T22:26:13.465Z,101214.25
2023-02-06T22:28:48.227Z,101227.34
2023-02-06T22:31:23.683Z,101231.69
2023-02-06T22:33:58.001Z,101238.53
2023-02-06T22:36:32.742Z,101232.00
2023-02-06T22:39:08.171Z,101230.75
2023-02-06T22:41:42.280Z,101239.66
2023-02-06T22:44:17.857Z,101240.34
2023-02-06T22:46:52.693Z,101261.44
2023-02-06T22:49:26.402Z,101252.25
2023-02-06T22:51:59.577Z,101261.56
2023-02-06T22:54:32.509Z,101277.78
2023-02-06T22:57:05.259Z,101275.66
2023-02-06T22:59:39.696Z,101276.41
2023-02-06T23:02:15.332Z,101274.63
2023-02-06T23:04:48.106Z,101264.81
2023-02-06T23:07:20.932Z,101295.69
2023-02-06T23:09:53.819Z,101308.75
2023-02-06T23:12:26.706Z,101314.44
2023-02-06T23:15:00.782Z,101308.28
2023-02-06T23:17:33.643Z,101302.91
2023-02-06T23:20:07.082Z,101295.19
2023-02-06T23:22:39.984Z,101306.56
2023-02-06T23:25:12.816Z,101309.13
2023-02-06T23:27:45.930Z,101311.56
2023-02-06T23:30:21.205Z,101325.66
2023-02-06T23:32:54.043Z,101320.38
2023-02-06T23:35:26.916Z,101324.16
2023-02-06T23:37:59.805Z,101313.50
2023-02-06T23:40:32.893Z,101319.91
2023-02-06T23:43:06.415Z,101324.28
2023-02-06T23:45:41.854Z,101323.03
2023-02-06T23:48:14.647Z,101326.63
2023-02-06T23:50:47.466Z,101328.13
2023-02-06T23:53:20.357Z,101328.66
2023-02-06T23:55:53.580Z,101312.94
2023-02-06T23:58:26.495Z,101314.72
